Latest Weather Observations for Tibooburra Airport

IDN60801

Issued at 8:53 am EDT Friday 9 December 2022 (issued every 10 minutes, with the page automatically refreshed every 10 minutes)

About weather observations | Map of weather stations | Latest weather observations for NSW | Other Formats
Station Details ID: 046126 Name: TIBOOBURRA AIRPORT Lat: -29.44 Lon: 142.06 Height: 176.4 m
Data from the previous 72 hours. | See also: Recent months at Tibooburra Airport
Date/Time
EDT
Temp
°C
App
Temp
°C
Dew
Point
°C
Rel
Hum
%
Delta-T
°C
Wind Press
QNH
hPa
Press
MSL
hPa
Rain since
9am
mm
Dir  Spd
km/h
Gust
km/h
Spd
kts
Gust
kts
09/08:30am 18.6 13.1 1.6 32 7.7 E 20 26 11 14 1015.1 1014.0 0.0
09/08:00am 16.8 11.2 1.3 35 6.9 E 20 26 11 14 1014.6 1013.5 0.0
09/07:30am 16.4 10.8 0.9 35 6.8 E 20 26 11 14 1014.4 1013.3 0.0
09/07:00am 16.6 11.0 1.1 35 6.9 ESE 20 26 11 14 1013.9 1012.8 0.0
09/06:30am 16.5 10.8 0.6 34 7.0 ESE 20 24 11 13 1013.6 1012.5 0.0
09/06:00am 16.1 12.0 -0.2 33 7.0 SE 11 15 6 8 1013.9 1012.8 0.0
09/05:30am 16.2 11.7 -0.5 32 7.1 SE 13 17 7 9 1013.5 1012.4 0.0
09/05:00am 16.2 11.7 -0.5 32 7.1 S 13 17 7 9 1013.9 1012.8 0.0
09/04:30am 16.0 11.4 -0.7 32 7.1 S 13 15 7 8 1013.9 1012.8 0.0
09/04:00am 16.1 11.5 -1.0 31 7.2 SSE 13 15 7 8 1013.6 1012.5 0.0
09/03:30am 16.1 11.5 -1.0 31 7.2 S 13 17 7 9 1013.8 1012.7 0.0
09/03:00am 16.4 11.7 -1.7 29 7.5 S 13 15 7 8 1014.0 1012.9 0.0
09/02:30am 17.0 12.7 -1.6 28 7.8 S 11 15 6 8 1014.1 1013.0 0.0
09/02:00am 17.8 13.5 -1.4 27 8.2 SSE 11 13 6 7 1014.1 1013.0 0.0
09/01:30am 18.4 13.3 -2.0 25 8.6 SSE 15 19 8 10 1014.2 1013.1 0.0
09/01:00am 19.0 13.9 -2.0 24 8.9 SSE 15 20 8 11 1014.5 1013.4 0.0
09/12:30am 19.4 13.9 -2.2 23 9.2 SSE 17 20 9 11 1015.1 1014.0 0.0
09/12:00am 19.7 14.5 -2.6 22 9.4 S 15 20 8 11 1015.3 1014.2 0.0
 
Date/Time
EDT
Temp
°C
App
Temp
°C
Dew
Point
°C
Rel
Hum
%
Delta-T
°C
Wind Press
QNH
hPa
Press
MSL
hPa
Rain since
9am
mm
Dir  Spd
km/h
Gust
km/h
Spd
kts
Gust
kts
08/11:30pm 20.2 15.0 -2.8 21 9.7 SSE 15 20 8 11 1014.9 1013.8 0.0
08/11:00pm 20.5 15.6 -3.2 20 9.9 SSE 13 15 7 8 1014.7 1013.6 0.0
08/10:30pm 21.3 16.0 -4.0 18 10.5 SE 15 19 8 10 1014.2 1013.1 0.0
08/10:00pm 22.0 16.6 -4.1 17 10.9 SSE 15 19 8 10 1013.8 1012.7 0.0
08/09:30pm 22.8 17.0 -4.3 16 11.4 SSE 17 24 9 13 1013.6 1012.5 0.0
08/09:00pm 23.5 17.3 -4.6 15 11.8 SSE 19 28 10 15 1013.2 1012.1 0.0
08/08:30pm 24.2 17.8 -4.9 14 12.2 SSE 20 28 11 15 1012.7 1011.6 0.0
08/08:00pm 25.1 17.9 -5.2 13 12.8 S 24 33 13 18 1012.3 1011.2 0.0
08/07:30pm 25.9 18.8 -4.6 13 13.1 S 24 35 13 19 1012.1 1011.0 0.0
08/07:00pm 26.4 19.7 -4.2 13 13.3 S 22 28 12 15 1011.5 1010.4 0.0
08/06:30pm 26.8 19.4 -3.9 13 13.5 S 26 35 14 19 1011.6 1010.5 0.0
08/06:00pm 27.1 19.7 -3.7 13 13.6 S 26 37 14 20 1011.4 1010.2 0.0
08/05:30pm 27.2 19.9 -2.6 14 13.4 S 26 33 14 18 1011.3 1010.1 0.0
08/05:00pm 27.6 21.0 -0.5 16 13.2 SSE 24 35 13 19 1011.6 1010.5 0.0
08/04:30pm 27.4 20.8 -0.6 16 13.1 S 24 41 13 22 1011.8 1010.7 0.0
08/04:00pm 27.6 21.4 -0.5 16 13.2 S 22 33 12 18 1012.2 1011.1 0.0
08/03:30pm 27.2 20.8 -1.7 15 13.2 S 22 33 12 18 1012.3 1011.2 0.0
08/03:00pm 26.6 19.7 0.4 18 12.4 SSE 26 41 14 22 1012.4 1011.3 0.0
08/02:30pm 26.0 19.2 0.6 19 12.0 SSE 26 39 14 21 1012.9 1011.8 0.0
08/02:00pm 25.0 19.1 1.8 22 11.1 SE 22 33 12 18 1013.2 1012.1 0.0
08/01:30pm 24.7 18.9 2.2 23 10.9 S 22 35 12 19 1013.6 1012.5 0.0
08/01:00pm 23.8 17.7 2.6 25 10.2 SSE 24 37 13 20 1013.9 1012.8 0.0
08/12:30pm 23.4 16.7 3.4 27 9.8 SSE 28 39 15 21 1014.3 1013.2 0.0
08/12:00pm 22.5 16.5 3.6 29 9.2 S 24 35 13 19 1014.6 1013.5 0.0
08/11:30am 21.7 15.4 3.9 31 8.7 SSE 26 37 14 20 1014.8 1013.7 0.0
08/11:00am 20.8 14.0 3.1 31 8.4 SSE 28 39 15 21 1015.0 1013.9 0.0
08/10:30am 19.8 12.5 4.3 36 7.5 SSE 32 41 17 22 1015.2 1014.1 0.0
08/10:10am 20.0 13.1 4.5 36 7.6 SSE 30 48 16 26 1015.2 1014.1 0.0
08/10:00am 19.3 11.9 3.9 36 7.4 SSE 32 41 17 22 1015.2 1014.1 0.0
08/09:30am 19.1 11.9 4.8 39 7.0 S 32 43 17 23 1015.2 1014.1 0.0
08/09:00am 18.2 10.1 5.4 43 6.3 SSE 37 46 20 25 1015.0 1013.9 0.0
08/08:30am 17.9 10.2 5.2 43 6.2 SSE 35 46 19 25 1014.8 1013.7 0.0
08/08:00am 17.4 10.2 5.0 44 6.0 SSE 32 46 17 25 1014.5 1013.4 0.0
08/07:30am 17.0 9.7 5.3 46 5.7 SSE 33 44 18 24 1013.9 1012.8 0.0
08/07:00am 16.9 9.4 4.6 44 5.9 SSE 33 43 18 23 1013.6 1012.5 0.0
08/06:30am 16.8 9.4 4.2 43 6.0 SSE 32 43 17 23 1013.2 1012.1 0.0
08/06:00am 17.1 10.1 4.1 42 6.2 SSE 30 41 16 22 1012.8 1011.7 0.0
08/05:30am 17.6 9.5 3.5 39 6.6 SSE 35 46 19 25 1012.3 1011.2 0.0
08/05:00am 18.1 11.4 3.6 38 6.8 SSE 28 41 15 22 1012.0 1010.9 0.0
08/04:30am 18.7 11.2 3.3 36 7.3 S 32 41 17 22 1011.6 1010.5 0.0
08/04:00am 19.3 12.7 4.3 37 7.3 SSE 28 35 15 19 1011.2 1010.0 0.0
08/03:30am 19.9 12.6 4.4 36 7.5 SSE 32 46 17 25 1011.1 1009.9 0.0
08/03:00am 20.5 13.3 4.9 36 7.7 SSE 32 46 17 25 1011.0 1009.8 0.0
08/02:30am 21.4 13.8 5.7 36 7.9 SSE 35 46 19 25 1010.9 1009.7 0.0
08/02:00am 22.5 15.7 9.3 43 7.2 SSE 35 46 19 25 1010.8 1009.6 0.0
08/01:44am 23.2 17.0 9.9 43 7.3 SSE 33 50 18 27 1010.6 1009.4 0.0
08/01:30am 23.4 19.3 10.1 43 7.3 SSE 22 30 12 16 1010.4 1009.2 0.0
08/01:00am 24.0 19.1 9.9 41 7.8 S 26 33 14 18 1010.2 1009.1 0.0
08/12:30am 24.6 18.6 10.1 40 8.1 S 32 39 17 21 1010.1 1009.0 0.0
08/12:00am 25.1 19.4 9.8 38 8.5 S 30 44 16 24 1009.9 1008.8 0.0
 
Date/Time
EDT
Temp
°C
App
Temp
°C
Dew
Point
°C
Rel
Hum
%
Delta-T
°C
Wind Press
QNH
hPa
Press
MSL
hPa
Rain since
9am
mm
Dir  Spd
km/h
Gust
km/h
Spd
kts
Gust
kts
07/11:30pm 25.8 19.6 10.0 37 8.8 S 33 46 18 25 1009.6 1008.5 0.0
07/11:00pm 26.6 21.0 11.5 39 8.7 S 32 41 17 22 1009.2 1008.1 0.0
07/10:30pm 27.4 21.6 12.6 40 8.7 S 35 50 19 27 1008.5 1007.4 0.0
07/10:00pm 28.2 22.8 12.9 38 9.1 S 33 50 18 27 1007.8 1006.7 0.0
07/09:30pm 29.1 24.2 12.5 36 9.8 S 30 43 16 23 1007.1 1006.0 0.0
07/09:00pm 29.8 24.3 11.8 33 10.6 S 32 44 17 24 1006.5 1005.4 0.0
07/08:30pm 30.6 24.4 11.5 30 11.2 S 35 46 19 25 1005.8 1004.6 0.0
07/08:00pm 31.5 24.4 10.8 28 12.1 SSW 39 52 21 28 1005.3 1004.1 0.0
07/07:37pm 32.6 25.5 9.4 24 13.2 S 37 56 20 30 1004.8 1003.6 0.0
07/07:30pm 33.1 26.3 9.2 23 13.6 S 35 50 19 27 1004.6 1003.4 0.0
07/07:00pm 34.0 26.8 9.3 22 14.2 SSW 37 48 20 26 1003.7 1002.6 0.0
07/06:36pm 35.0 27.1 9.4 21 14.8 S 41 59 22 32 1003.2 1002.1 0.0
07/06:30pm 34.8 26.3 8.5 20 15.0 S 43 59 23 32 1003.2 1002.1 0.0
07/06:20pm 35.4 27.8 9.0 20 15.2 SSW 39 57 21 31 1003.0 1001.9 0.0
07/06:00pm 35.9 28.0 7.9 18 15.9 SSW 39 52 21 28 1002.4 1001.3 0.0
07/05:45pm 36.9 29.0 7.8 17 16.5 SW 39 56 21 30 1002.2 1001.1 0.0
07/05:30pm 38.0 31.0 6.9 15 17.5 SW 33 48 18 26 1002.1 1001.0 0.0
07/05:05pm 38.0 31.0 6.9 15 17.5 WSW 33 46 18 25 1002.2 1001.1 0.0
07/05:00pm 38.2 32.2 7.0 15 17.7 W 28 41 15 22 1002.3 1001.2 0.0
07/04:30pm 36.7 30.6 6.8 16 16.7 W 28 43 15 23 1002.8 1001.7 0.0
07/04:00pm 36.9 32.6 7.0 16 16.8 NW 19 30 10 16 1002.8 1001.7 0.0
07/03:30pm 34.1 30.0 6.4 18 15.2 N 17 28 9 15 1003.4 1002.3 0.0
07/03:00pm 33.2 28.2 6.5 19 14.7 N 22 32 12 17 1004.0 1002.9 0.0
07/02:30pm 33.4 28.1 6.6 19 14.7 NNE 24 35 13 19 1003.9 1002.8 0.0
07/02:00pm 33.6 27.5 6.8 19 14.8 NNE 28 39 15 21 1004.2 1003.1 0.0
07/01:30pm 33.4 26.3 6.6 19 14.7 NNE 33 44 18 24 1004.8 1003.6 0.0
07/01:00pm 32.6 26.1 6.7 20 14.2 NE 30 35 16 19 1005.3 1004.1 0.0
07/12:30pm 31.5 26.3 7.2 22 13.3 NNE 24 33 13 18 1006.8 1005.7 0.0
07/12:00pm 31.4 25.4 7.1 22 13.3 NE 28 35 15 19 1006.4 1005.3 0.0
07/11:30am 31.5 25.9 7.2 22 13.3 ENE 26 33 14 18 1006.9 1005.8 0.0
07/11:00am 30.5 25.2 7.0 23 12.8 ENE 24 32 13 17 1006.6 1005.5 0.0
07/10:30am 28.8 23.9 6.8 25 11.8 ENE 22 28 12 15 1007.0 1005.9 0.0
07/10:00am 28.2 21.7 6.3 25 11.6 NE 30 35 16 19 1006.9 1005.8 0.0
07/09:30am 27.8 23.1 6.0 25 11.5 NE 20 35 11 19 1008.0 1006.9 0.0
07/09:00am 27.0 21.1 5.9 26 11.1 NE 26 32 14 17 1007.7 1006.6 0.0
07/08:30am 26.5 20.9 5.5 26 10.9 NE 24 33 13 18 1007.5 1006.4 0.0
07/08:00am 25.8 19.9 5.9 28 10.4 NE 26 32 14 17 1007.0 1005.9 0.0
07/07:30am 25.0 20.5 6.2 30 9.8 NE 19 24 10 13 1007.0 1005.9 0.0
07/07:00am 24.5 20.3 5.8 30 9.6 ENE 17 19 9 10 1006.9 1005.8 0.0
07/06:30am 24.5 20.3 5.8 30 9.6 SE 17 20 9 11 1007.0 1005.9 0.0
07/06:00am 24.3 20.1 5.6 30 9.6 ESE 17 20 9 11 1006.4 1005.3 0.0
07/05:30am 24.6 20.1 5.9 30 9.6 ESE 19 24 10 13 1005.9 1004.7 0.0
07/05:00am 24.5 19.8 5.3 29 9.8 ESE 19 26 10 14 1005.5 1004.3 0.0
07/04:30am 24.3 19.6 5.1 29 9.7 ESE 19 22 10 12 1005.4 1004.2 0.0
07/04:00am 23.9 19.5 4.8 29 9.6 ESE 17 20 9 11 1005.1 1003.9 0.0
07/03:30am 23.8 19.4 4.7 29 9.6 ESE 17 19 9 10 1005.1 1003.9 0.0
07/03:00am 24.1 20.0 4.5 28 9.9 E 15 19 8 10 1005.1 1003.9 0.0
07/02:30am 24.5 20.0 4.3 27 10.1 E 17 19 9 10 1005.6 1004.4 0.0
07/02:00am 25.1 21.1 4.8 27 10.3 ESE 15 19 8 10 1006.2 1005.0 0.0
07/01:30am 25.2 21.6 4.9 27 10.3 ESE 13 15 7 8 1006.1 1004.9 0.0
07/01:00am 25.8 21.5 5.4 27 10.5 E 17 20 9 11 1006.3 1005.1 0.0
07/12:30am 26.7 22.5 5.6 26 11.0 ESE 17 20 9 11 1006.7 1005.6 0.0
07/12:00am 27.4 23.2 5.6 25 11.4 ESE 17 20 9 11 1006.8 1005.7 0.0
 
Date/Time
EDT
Temp
°C
App
Temp
°C
Dew
Point
°C
Rel
Hum
%
Delta-T
°C
Wind Press
QNH
hPa
Press
MSL
hPa
Rain since
9am
mm
Dir  Spd
km/h
Gust
km/h
Spd
kts
Gust
kts
06/11:30pm 28.2 24.1 6.3 25 11.6 SE 17 22 9 12 1007.2 1006.1 0.0
06/11:00pm 28.7 24.6 6.1 24 12.0 SE 17 22 9 12 1007.4 1006.3 0.0
06/10:30pm 29.2 25.2 6.6 24 12.1 ESE 17 20 9 11 1007.2 1006.1 0.0
06/10:00pm 29.8 25.4 6.5 23 12.5 ESE 19 24 10 13 1007.0 1005.9 0.0
06/09:30pm 30.4 25.9 6.3 22 12.9 SE 19 24 10 13 1007.0 1005.9 0.0
06/09:00pm 31.0 26.5 6.1 21 13.4 SE 19 20 10 11 1006.8 1005.7 0.0
06/08:30pm 31.6 27.1 5.9 20 13.8 ESE 19 24 10 13 1006.6 1005.5 0.0
06/08:00pm 32.5 27.8 5.9 19 14.4 SE 20 26 11 14 1006.5 1005.4 0.0
06/07:30pm 32.7 28.0 6.1 19 14.4 ESE 20 26 11 14 1006.2 1005.0 0.0
06/07:00pm 33.5 29.7 5.9 18 15.0 SE 15 24 8 13 1006.2 1005.0 0.0
06/06:30pm 34.5 30.0 5.9 17 15.6 SE 19 32 10 17 1006.2 1005.0 0.0
06/06:00pm 34.5 31.5 5.9 17 15.6 SW 11 17 6 9 1006.2 1005.0 0.0
06/05:30pm 35.0 32.4 6.3 17 15.8 SW 9 17 5 9 1006.4 1005.3 0.0
06/05:00pm 34.0 31.1 6.3 18 15.2 S 11 17 6 9 1006.7 1005.6 0.0
06/04:30pm 34.3 31.8 6.6 18 15.3 SSE 9 20 5 11 1007.0 1005.9 0.0
06/04:00pm 35.1 32.2 6.4 17 15.9 SSW 11 30 6 16 1007.4 1006.3 0.0
06/03:30pm 33.7 30.3 6.1 18 15.0 SE 13 24 7 13 1007.8 1006.7 0.0
06/03:00pm 33.4 30.1 6.6 19 14.7 SSW 13 24 7 13 1008.2 1007.1 0.0
06/02:30pm 32.9 29.6 6.2 19 14.5 SE 13 24 7 13 1008.7 1007.6 0.0
06/02:00pm 33.0 31.0 7.1 20 14.3 S 7 15 4 8 1009.1 1008.0 0.0
06/01:30pm 32.2 29.7 6.4 20 14.0 ESE 9 19 5 10 1008.8 1007.7 0.0
06/01:00pm 32.1 29.3 7.0 21 13.8 SE 11 17 6 9 1009.3 1008.2 0.0
06/12:30pm 30.8 28.8 7.3 23 12.9 SE 7 17 4 9 1009.7 1008.6 0.0
06/12:00pm 29.8 26.8 7.7 25 12.1 SE 13 20 7 11 1009.9 1008.8 0.0
06/11:30am 28.9 25.9 7.5 26 11.6 ESE 13 22 7 12 1010.2 1009.1 0.0
06/11:00am 28.1 24.8 7.9 28 11.0 ESE 15 26 8 14 1010.5 1009.3 0.0
06/10:30am 27.5 24.5 7.9 29 10.6 E 13 20 7 11 1010.8 1009.6 0.0
06/10:00am 26.3 22.2 7.8 31 10.0 ESE 19 26 10 14 1011.0 1009.8 0.0
06/09:30am 25.6 21.0 8.1 33 9.4 ESE 22 30 12 16 1010.8 1009.6 0.0
06/09:00am 24.7 19.7 8.2 35 8.9 E 24 32 13 17 1010.6 1009.4 0.0

Other formats

Comma delimited format used in spreadsheet applications
http://www.bom.gov.au/fwo/IDN60801/IDN60801.95485.axf

JavaScript Object Notation format (JSON) in row-major order
http://www.bom.gov.au/fwo/IDN60801/IDN60801.95485.json

Data quality

Most of these data are generated automatically and are frequently updated. Quality checks on data are not normally performed. It is possible for incorrect values to appear. Refer to information at About Latest Weather Observations and please check the disclaimer before using these data.